Terminal Aerodrome Forecast
Issued by NWS Dodge City, KS

Home | Current Version | Previous Version | Graphics & Text | Print | Product List | Glossary Off
Versions: 1 2 3 4 5 6 7 8 9 10 11 12 13 14 15 16 17

000
FTUS43 KDDC 241730
TAFDDC
TAF
KDDC 241730Z 2418/2518 35019KT P6SM OVC010
      TEMPO 2502/2505 4SM -SHRA OVC015
     FM250500 34015KT 6SM -SHRA OVC015
     FM250600 34015KT 6SM SHRA OVC020
     FM250800 33010KT 6SM SHRA BKN045=

USA.gov is the U.S. government's official web portal to all federal, state and local government web resources and services.